createdAt,value
2022-08-08T00:00:53.525Z,2.08
2022-08-08T00:03:28.283Z,1.83
2022-08-08T00:06:03.731Z,1.95
2022-08-08T00:08:48.936Z,2.13
2022-08-08T00:11:46.615Z,1.75
2022-08-08T00:14:57.409Z,1.80
2022-08-08T00:18:01.678Z,1.90
2022-08-08T00:20:36.135Z,2.20
2022-08-08T00:23:08.189Z,2.00
2022-08-08T00:25:46.481Z,2.80
2022-08-08T00:28:38.002Z,2.15
2022-08-08T00:32:21.135Z,2.13
2022-08-08T00:34:39.319Z,2.47
2022-08-08T00:37:47.256Z,1.98
2022-08-08T00:41:09.292Z,2.17
2022-08-08T00:43:56.328Z,2.25
2022-08-08T00:46:57.769Z,1.98
2022-08-08T00:49:58.477Z,2.22
2022-08-08T00:52:43.513Z,2.60
2022-08-08T00:55:54.772Z,2.45
2022-08-08T00:58:36.897Z,2.10
2022-08-08T01:01:37.684Z,2.25
2022-08-08T01:05:06.224Z,2.45
2022-08-08T01:07:56.559Z,2.40
2022-08-08T01:10:52.495Z,2.00
2022-08-08T01:13:58.494Z,2.38
2022-08-08T01:16:55.216Z,2.50
2022-08-08T01:20:01.870Z,2.88
2022-08-08T01:22:37.356Z,2.50
2022-08-08T01:25:08.316Z,2.00
2022-08-08T01:28:14.971Z,2.47
2022-08-08T01:32:05.645Z,2.60
2022-08-08T01:34:29.130Z,2.35
2022-08-08T01:37:56.439Z,2.20
2022-08-08T01:40:55.043Z,2.53
2022-08-08T01:43:50.597Z,2.50
2022-08-08T01:46:26.975Z,2.72
2022-08-08T01:49:22.770Z,2.30
2022-08-08T01:52:42.782Z,2.53
2022-08-08T01:56:29.807Z,2.53
2022-08-08T01:58:32.280Z,2.40
2022-08-08T02:01:30.273Z,2.97
2022-08-08T02:04:37.547Z,2.60
2022-08-08T02:07:41.484Z,2.50
2022-08-08T02:10:37.240Z,2.72
2022-08-08T02:13:53.160Z,2.58
2022-08-08T02:16:28.465Z,2.55
2022-08-08T02:19:10.116Z,2.38
2022-08-08T02:22:09.615Z,2.75
2022-08-08T02:24:51.807Z,2.53
2022-08-08T02:27:50.179Z,2.50
2022-08-08T02:30:27.308Z,2.85
2022-08-08T02:33:10.936Z,3.00
2022-08-08T02:36:03.302Z,2.85
2022-08-08T02:38:35.135Z,3.30
2022-08-08T02:42:03.870Z,2.75
2022-08-08T02:45:00.497Z,2.80
2022-08-08T02:47:54.779Z,2.90
2022-08-08T02:51:24.044Z,2.90
2022-08-08T02:54:13.785Z,3.17
2022-08-08T02:57:05.104Z,3.22
2022-08-08T03:00:31.495Z,3.30
2022-08-08T03:05:01.073Z,2.60
2022-08-08T03:06:24.168Z,3.22
2022-08-08T03:09:21.255Z,3.47
2022-08-08T03:12:02.396Z,2.88
2022-08-08T03:16:01.861Z,3.25
2022-08-08T03:18:04.929Z,3.20
2022-08-08T03:20:51.526Z,3.28
2022-08-08T03:23:23.368Z,2.80
2022-08-08T03:25:52.032Z,3.13
2022-08-08T03:28:38.557Z,3.20
2022-08-08T03:31:26.707Z,3.08
2022-08-08T03:34:01.323Z,3.42
2022-08-08T03:36:42.972Z,3.35
2022-08-08T03:39:15.991Z,2.88
2022-08-08T03:42:28.643Z,3.00
2022-08-08T03:44:39.009Z,3.20
2022-08-08T03:47:19.894Z,3.20
2022-08-08T03:50:00.867Z,3.60
2022-08-08T03:52:36.523Z,3.35
2022-08-08T03:55:20.261Z,3.13
2022-08-08T03:58:33.828Z,3.63
2022-08-08T04:01:23.221Z,3.30
2022-08-08T04:03:58.958Z,3.25
2022-08-08T04:06:32.079Z,3.75
2022-08-08T04:09:08.827Z,3.90
2022-08-08T04:11:48.483Z,3.75
2022-08-08T04:14:35.532Z,3.45
2022-08-08T04:17:06.768Z,3.47
2022-08-08T04:19:42.972Z,4.13
2022-08-08T04:22:10.200Z,3.63
2022-08-08T04:24:40.355Z,4.13
2022-08-08T04:27:42.980Z,4.25
2022-08-08T04:30:17.251Z,3.72
2022-08-08T04:32:46.649Z,3.70
2022-08-08T04:35:15.654Z,3.90
2022-08-08T04:37:44.790Z,3.67
2022-08-08T04:40:18.241Z,3.65
2022-08-08T04:42:56.700Z,3.60
2022-08-08T04:45:43.926Z,3.90
2022-08-08T04:48:15.002Z,3.88
2022-08-08T04:50:44.705Z,4.20
2022-08-08T04:54:27.683Z,3.80
2022-08-08T04:56:09.198Z,3.95
2022-08-08T04:58:38.281Z,3.92
2022-08-08T05:01:11.110Z,4.07
2022-08-08T05:04:10.408Z,4.57
2022-08-08T05:06:36.414Z,4.50
2022-08-08T05:09:07.181Z,4.53
2022-08-08T05:11:39.657Z,4.28
2022-08-08T05:14:12.350Z,4.30
2022-08-08T05:16:47.945Z,4.00
2022-08-08T05:20:11.851Z,4.50
2022-08-08T05:22:12.969Z,4.50
2022-08-08T05:24:48.151Z,3.92
2022-08-08T05:27:16.765Z,4.47
2022-08-08T05:29:45.108Z,4.60
2022-08-08T05:32:18.382Z,4.53
2022-08-08T05:34:47.591Z,4.82
2022-08-08T05:37:21.065Z,4.18
2022-08-08T05:39:53.394Z,4.53
2022-08-08T05:42:36.215Z,4.80
2022-08-08T05:45:24.354Z,4.53
2022-08-08T05:48:00.431Z,4.35
2022-08-08T05:50:33.466Z,4.80
2022-08-08T05:53:54.751Z,4.65
2022-08-08T05:56:09.616Z,4.53
2022-08-08T05:58:53.823Z,4.20
2022-08-08T06:01:52.605Z,5.20
2022-08-08T06:04:22.896Z,5.13
2022-08-08T06:06:53.442Z,5.00
2022-08-08T06:09:58.187Z,4.80
2022-08-08T06:12:18.758Z,5.13
2022-08-08T06:15:01.041Z,4.95
2022-08-08T06:17:51.229Z,4.97
2022-08-08T06:20:25.971Z,5.47
2022-08-08T06:22:56.342Z,5.45
2022-08-08T06:25:58.914Z,5.40
2022-08-08T06:28:28.980Z,5.53
2022-08-08T06:31:00.796Z,4.75
2022-08-08T06:34:25.460Z,5.57
2022-08-08T06:36:53.401Z,5.45
2022-08-08T06:39:22.757Z,5.00
2022-08-08T06:41:58.638Z,5.25
2022-08-08T06:44:42.532Z,5.47
2022-08-08T06:47:10.748Z,4.95
2022-08-08T06:49:55.158Z,4.85
2022-08-08T06:52:27.757Z,5.47
2022-08-08T06:54:58.629Z,4.93
2022-08-08T07:00:10.495Z,5.45
2022-08-08T07:02:45.972Z,5.18
2022-08-08T07:05:20.829Z,4.82
2022-08-08T07:08:00.072Z,5.18
2022-08-08T07:10:45.986Z,4.32
2022-08-08T07:13:19.968Z,5.45
2022-08-08T07:16:06.283Z,5.00
2022-08-08T07:19:06.273Z,5.03
2022-08-08T07:22:18.502Z,5.40
2022-08-08T07:25:01.676Z,4.85
2022-08-08T07:28:00.552Z,4.82
2022-08-08T07:30:30.897Z,4.40
2022-08-08T07:32:59.399Z,4.55
2022-08-08T07:35:31.220Z,4.30
2022-08-08T07:38:10.651Z,4.75
2022-08-08T07:40:59.174Z,3.70
2022-08-08T07:43:36.809Z,4.18
2022-08-08T07:46:23.332Z,4.80
2022-08-08T07:48:52.517Z,4.50
2022-08-08T07:51:23.634Z,4.15
2022-08-08T07:54:33.003Z,4.13
2022-08-08T07:57:16.913Z,4.35
2022-08-08T08:00:05.262Z,4.20
2022-08-08T08:03:08.660Z,3.60
2022-08-08T08:05:45.185Z,3.53
2022-08-08T08:08:25.566Z,4.20
2022-08-08T08:10:58.189Z,3.30
2022-08-08T08:14:08.226Z,3.88
2022-08-08T08:16:41.070Z,3.40
2022-08-08T08:19:10.743Z,2.83
2022-08-08T08:21:52.839Z,3.40
2022-08-08T08:24:35.325Z,3.30
2022-08-08T08:27:04.424Z,3.33
2022-08-08T08:29:36.194Z,3.00
2022-08-08T08:32:05.590Z,4.38
2022-08-08T08:34:37.285Z,3.03
2022-08-08T08:37:11.585Z,3.10
2022-08-08T08:40:02.089Z,2.75
2022-08-08T08:42:35.691Z,2.45
2022-08-08T08:45:21.568Z,2.75
2022-08-08T08:47:58.486Z,2.67
2022-08-08T08:50:35.102Z,2.83
2022-08-08T08:53:54.890Z,3.13
2022-08-08T08:56:07.781Z,2.55
2022-08-08T08:58:43.358Z,3.17
2022-08-08T09:01:21.712Z,2.90
2022-08-08T09:03:54.857Z,2.50
2022-08-08T09:06:34.081Z,2.72
2022-08-08T09:09:26.607Z,2.83
2022-08-08T09:12:10.603Z,2.40
2022-08-08T09:14:45.077Z,2.92
2022-08-08T09:17:19.149Z,2.95
2022-08-08T09:21:59.699Z,3.03
2022-08-08T09:22:58.180Z,2.72
2022-08-08T09:25:47.502Z,2.67
2022-08-08T09:28:35.203Z,2.75
2022-08-08T09:31:12.881Z,2.70
2022-08-08T09:34:06.041Z,3.40
2022-08-08T09:36:36.029Z,2.92
2022-08-08T09:39:10.306Z,3.45
2022-08-08T09:42:21.332Z,2.85
2022-08-08T09:45:15.762Z,2.40
2022-08-08T09:48:04.091Z,2.20
2022-08-08T09:50:35.610Z,2.42
2022-08-08T09:53:23.772Z,2.20
2022-08-08T09:56:06.019Z,2.53
2022-08-08T09:58:41.602Z,2.13
2022-08-08T10:01:14.332Z,2.22
2022-08-08T10:03:56.133Z,2.60
2022-08-08T10:06:29.479Z,2.90
2022-08-08T10:08:57.493Z,2.33
2022-08-08T10:12:28.319Z,2.08
2022-08-08T10:14:28.595Z,2.30
2022-08-08T10:16:59.766Z,2.70
2022-08-08T10:19:57.182Z,2.40
2022-08-08T10:22:27.501Z,2.25
2022-08-08T10:25:01.845Z,2.13
2022-08-08T10:27:34.218Z,2.13
2022-08-08T10:30:05.025Z,2.20
2022-08-08T10:32:35.847Z,2.25
2022-08-08T10:35:20.358Z,2.20
2022-08-08T10:38:05.438Z,2.50
2022-08-08T10:40:33.185Z,2.25
2022-08-08T10:43:05.672Z,2.42
2022-08-08T10:45:56.356Z,2.72
2022-08-08T10:48:57.044Z,2.60
2022-08-08T10:51:31.064Z,2.28
2022-08-08T10:54:02.051Z,2.72
2022-08-08T10:56:35.465Z,2.60
2022-08-08T10:59:10.377Z,2.10
2022-08-08T11:01:46.148Z,2.25
2022-08-08T11:04:17.181Z,2.15
2022-08-08T11:07:00.690Z,2.33
2022-08-08T11:09:31.981Z,2.20
2022-08-08T11:12:13.140Z,2.20
2022-08-08T11:14:51.878Z,2.03
2022-08-08T11:18:01.118Z,2.17
2022-08-08T11:20:15.245Z,1.80
2022-08-08T11:22:50.954Z,2.25
2022-08-08T11:25:52.689Z,2.38
2022-08-08T11:28:23.481Z,1.95
2022-08-08T11:30:54.305Z,2.55
2022-08-08T11:33:52.703Z,2.40
2022-08-08T11:36:15.005Z,2.20
2022-08-08T11:38:54.340Z,2.22
2022-08-08T11:41:23.704Z,2.00
2022-08-08T11:43:54.131Z,2.30
2022-08-08T11:46:27.990Z,2.42
2022-08-08T11:48:58.033Z,2.50
2022-08-08T11:51:38.184Z,1.80
2022-08-08T11:54:26.949Z,1.50
2022-08-08T11:57:14.186Z,1.60
2022-08-08T12:00:05.315Z,2.10
2022-08-08T12:05:36.869Z,3.92
2022-08-08T12:08:04.754Z,2.17
2022-08-08T12:10:32.543Z,2.17
2022-08-08T12:13:06.737Z,2.28
2022-08-08T12:15:42.515Z,1.98
2022-08-08T12:18:21.264Z,1.70
2022-08-08T12:20:50.760Z,1.75
2022-08-08T12:23:43.377Z,1.50
2022-08-08T12:26:28.341Z,1.50
2022-08-08T12:29:40.097Z,1.50
2022-08-08T12:32:19.558Z,1.88
2022-08-08T12:35:01.446Z,2.35
2022-08-08T12:37:41.223Z,2.10
2022-08-08T12:40:22.523Z,2.30
2022-08-08T12:42:50.535Z,2.15
2022-08-08T12:45:53.866Z,2.38
2022-08-08T12:48:37.284Z,2.38
2022-08-08T12:51:10.877Z,2.33
2022-08-08T12:53:58.719Z,2.35
2022-08-08T12:56:34.111Z,2.40
2022-08-08T12:59:01.670Z,1.92
2022-08-08T13:01:36.358Z,1.98
2022-08-08T13:04:24.400Z,1.90
2022-08-08T13:07:00.765Z,1.58
2022-08-08T13:10:04.638Z,1.70
2022-08-08T13:12:47.119Z,1.50
2022-08-08T13:15:17.082Z,1.50
2022-08-08T13:18:08.480Z,1.80
2022-08-08T13:20:34.411Z,2.08
2022-08-08T13:23:31.267Z,2.17
2022-08-08T13:25:51.113Z,1.75
2022-08-08T13:28:32.358Z,1.98
2022-08-08T13:31:04.596Z,1.75
2022-08-08T13:33:42.077Z,1.70
2022-08-08T13:36:11.078Z,1.95
2022-08-08T13:38:39.779Z,1.92
2022-08-08T13:41:07.511Z,1.67
2022-08-08T13:43:46.681Z,1.50
2022-08-08T13:46:26.960Z,1.83
2022-08-08T13:50:33.244Z,1.38
2022-08-08T13:52:04.435Z,1.75
2022-08-08T13:54:35.174Z,1.80
2022-08-08T13:57:17.123Z,1.60
2022-08-08T13:59:48.318Z,2.38
2022-08-08T14:02:20.837Z,1.80
2022-08-08T14:04:57.266Z,1.85
2022-08-08T14:07:32.874Z,2.10
2022-08-08T14:10:05.850Z,2.13
2022-08-08T14:12:43.838Z,1.75
2022-08-08T14:15:46.052Z,1.55
2022-08-08T14:18:36.068Z,1.90
2022-08-08T14:21:15.341Z,1.48
2022-08-08T14:24:04.795Z,1.42
2022-08-08T14:26:46.264Z,1.23
2022-08-08T14:29:29.858Z,1.50
2022-08-08T14:32:12.798Z,1.85
2022-08-08T14:34:45.215Z,1.83
2022-08-08T14:37:17.057Z,1.67
2022-08-08T14:39:53.717Z,1.70
2022-08-08T14:42:32.619Z,1.73
2022-08-08T14:45:02.785Z,1.75
2022-08-08T14:47:36.084Z,1.65
2022-08-08T14:50:21.295Z,1.45
2022-08-08T14:52:54.456Z,1.60
2022-08-08T14:55:35.329Z,1.73
2022-08-08T14:58:12.162Z,1.67
2022-08-08T15:00:45.165Z,1.48
2022-08-08T15:03:15.071Z,2.10
2022-08-08T15:05:54.735Z,1.85
2022-08-08T15:08:34.392Z,1.60
2022-08-08T15:11:11.577Z,1.55
2022-08-08T15:14:00.856Z,1.63
2022-08-08T15:16:34.504Z,1.50
2022-08-08T15:19:03.512Z,1.25
2022-08-08T15:21:30.824Z,1.50
2022-08-08T15:23:58.906Z,1.45
2022-08-08T15:26:28.682Z,1.38
2022-08-08T15:28:57.525Z,1.63
2022-08-08T15:31:54.014Z,1.90
2022-08-08T15:34:29.016Z,1.50
2022-08-08T15:36:59.711Z,1.88
2022-08-08T15:39:37.718Z,1.85
2022-08-08T15:42:10.578Z,2.08
2022-08-08T15:44:46.077Z,1.55
2022-08-08T15:47:15.933Z,1.90
2022-08-08T15:49:48.667Z,1.95
2022-08-08T15:52:20.697Z,1.98
2022-08-08T15:54:51.681Z,1.80
2022-08-08T15:57:21.105Z,2.38
2022-08-08T16:00:06.360Z,1.80
2022-08-08T16:02:50.310Z,1.77
2022-08-08T16:05:23.779Z,1.70
2022-08-08T16:07:53.799Z,1.77
2022-08-08T16:13:05.466Z,1.48
2022-08-08T16:13:30.651Z,1.50
2022-08-08T16:16:09.266Z,1.40
2022-08-08T16:18:56.853Z,1.63
2022-08-08T16:21:32.101Z,1.52
2022-08-08T16:24:04.088Z,1.33
2022-08-08T16:26:35.883Z,1.65
2022-08-08T16:29:07.737Z,1.50
2022-08-08T16:31:40.465Z,1.23
2022-08-08T16:34:09.808Z,1.58
2022-08-08T16:36:38.842Z,1.60
2022-08-08T16:39:27.928Z,1.70
2022-08-08T16:42:01.487Z,1.60
2022-08-08T16:44:33.624Z,1.35
2022-08-08T16:47:21.928Z,1.98
2022-08-08T16:50:12.668Z,1.42
2022-08-08T16:55:23.696Z,1.65
2022-08-08T16:55:52.884Z,1.73
2022-08-08T16:58:25.646Z,2.05
2022-08-08T17:00:57.824Z,1.55
2022-08-08T17:03:58.032Z,1.75
2022-08-08T17:06:17.686Z,1.60
2022-08-08T17:09:02.416Z,1.60
2022-08-08T17:11:47.984Z,1.80
2022-08-08T17:14:17.988Z,1.80
2022-08-08T17:19:27.504Z,1.30
2022-08-08T17:21:57.262Z,1.63
2022-08-08T17:24:27.692Z,1.98
2022-08-08T17:26:57.947Z,1.80
2022-08-08T17:29:33.779Z,1.77
2022-08-08T17:32:02.706Z,1.85
2022-08-08T17:34:49.204Z,1.70
2022-08-08T17:37:19.163Z,1.88
2022-08-08T17:40:05.624Z,1.67
2022-08-08T17:42:34.921Z,1.50
2022-08-08T17:45:02.337Z,1.83
2022-08-08T17:47:37.465Z,1.70
2022-08-08T17:50:06.213Z,1.88
2022-08-08T17:52:35.295Z,1.83
2022-08-08T17:55:05.598Z,2.00
2022-08-08T17:57:37.607Z,1.98
2022-08-08T18:00:13.421Z,1.90
2022-08-08T18:02:58.137Z,1.70
2022-08-08T18:05:44.255Z,2.00
2022-08-08T18:08:24.434Z,1.60
2022-08-08T18:11:08.404Z,2.55
2022-08-08T18:13:41.483Z,2.38
2022-08-08T18:16:10.126Z,2.42
2022-08-08T18:18:42.709Z,1.90
2022-08-08T18:21:34.635Z,2.60
2022-08-08T18:24:01.686Z,2.40
2022-08-08T18:26:29.494Z,1.83
2022-08-08T18:28:57.657Z,2.28
2022-08-08T18:31:27.728Z,1.80
2022-08-08T18:34:11.401Z,2.28
2022-08-08T18:36:51.798Z,1.85
2022-08-08T18:39:28.292Z,1.85
2022-08-08T18:42:02.896Z,2.10
2022-08-08T18:44:32.772Z,2.15
2022-08-08T18:47:02.432Z,2.65
2022-08-08T18:49:41.107Z,2.30
2022-08-08T18:52:22.778Z,2.60
2022-08-08T18:54:59.386Z,2.40
2022-08-08T18:57:36.830Z,2.80
2022-08-08T19:00:14.099Z,2.63
2022-08-08T19:02:48.539Z,2.33
2022-08-08T19:05:32.039Z,2.28
2022-08-08T19:08:24.471Z,2.20
2022-08-08T19:10:54.112Z,2.30
2022-08-08T19:13:24.539Z,2.10
2022-08-08T19:15:55.882Z,2.28
2022-08-08T19:18:32.521Z,2.40
2022-08-08T19:21:28.984Z,2.28
2022-08-08T19:23:58.938Z,2.30
2022-08-08T19:26:29.014Z,2.28
2022-08-08T19:28:59.587Z,2.30
2022-08-08T19:31:31.715Z,2.30
2022-08-08T19:34:35.883Z,2.30
2022-08-08T19:36:58.597Z,2.08
2022-08-08T19:39:34.763Z,2.42
2022-08-08T19:42:06.886Z,2.50
2022-08-08T19:44:45.802Z,2.20
2022-08-08T19:47:16.229Z,2.45
2022-08-08T19:49:59.632Z,2.00
2022-08-08T19:52:35.354Z,2.50
2022-08-08T19:55:11.245Z,1.75
2022-08-08T19:57:47.379Z,2.28
2022-08-08T20:00:29.894Z,2.10
2022-08-08T20:03:14.267Z,2.00
2022-08-08T20:06:13.474Z,2.05
2022-08-08T20:08:32.053Z,2.28
2022-08-08T20:11:00.583Z,1.90
2022-08-08T20:14:32.759Z,2.30
2022-08-08T20:16:17.590Z,2.72
2022-08-08T20:18:52.860Z,2.60
2022-08-08T20:21:25.698Z,3.67
2022-08-08T20:23:57.901Z,3.85
2022-08-08T20:26:31.873Z,2.45
2022-08-08T20:29:01.809Z,2.53
2022-08-08T20:32:02.829Z,2.75
2022-08-08T20:34:29.869Z,2.33
2022-08-08T20:37:03.275Z,2.15
2022-08-08T20:39:39.137Z,2.20
2022-08-08T20:42:20.465Z,2.08
2022-08-08T20:44:56.915Z,2.22
2022-08-08T20:47:25.356Z,2.40
2022-08-08T20:49:54.453Z,2.38
2022-08-08T20:52:27.894Z,2.83
2022-08-08T20:54:57.026Z,2.13
2022-08-08T20:57:26.929Z,2.17
2022-08-08T20:59:56.179Z,2.42
2022-08-08T21:02:27.374Z,2.25
2022-08-08T21:05:00.595Z,2.15
2022-08-08T21:07:47.134Z,2.25
2022-08-08T21:10:21.006Z,1.92
2022-08-08T21:12:53.056Z,1.77
2022-08-08T21:16:03.894Z,2.13
2022-08-08T21:18:12.106Z,1.83
2022-08-08T21:20:41.946Z,2.20
2022-08-08T21:25:40.690Z,2.50
2022-08-08T21:28:14.473Z,2.28
2022-08-08T21:30:45.362Z,1.73
2022-08-08T21:33:21.285Z,2.25
2022-08-08T21:36:16.379Z,2.08
2022-08-08T21:38:36.050Z,2.25
2022-08-08T21:41:03.325Z,2.20
2022-08-08T21:43:33.951Z,1.83
2022-08-08T21:48:03.644Z,2.03
2022-08-08T21:48:53.024Z,2.40
2022-08-08T21:54:16.773Z,2.25
2022-08-08T21:54:31.444Z,2.40
2022-08-08T21:56:59.379Z,2.22
2022-08-08T22:00:01.312Z,2.40
2022-08-08T22:02:22.823Z,1.77
2022-08-08T22:04:55.936Z,2.50
2022-08-08T22:07:39.607Z,2.10
2022-08-08T22:10:09.601Z,2.00
2022-08-08T22:12:38.874Z,2.20
2022-08-08T22:15:07.450Z,2.10
2022-08-08T22:17:41.462Z,1.92
2022-08-08T22:20:23.767Z,2.25
2022-08-08T22:22:55.544Z,2.00
2022-08-08T22:25:25.259Z,2.10
2022-08-08T22:28:02.983Z,2.30
2022-08-08T22:30:33.763Z,2.30
2022-08-08T22:33:02.325Z,2.10
2022-08-08T22:36:04.145Z,2.13
2022-08-08T22:38:23.775Z,2.08
2022-08-08T22:40:51.095Z,2.65
2022-08-08T22:43:18.895Z,2.05
2022-08-08T22:45:52.882Z,2.20
2022-08-08T22:48:21.713Z,1.90
2022-08-08T22:50:49.831Z,2.50
2022-08-08T22:54:31.900Z,2.05
2022-08-08T22:56:05.760Z,2.10
2022-08-08T22:58:34.482Z,2.00
2022-08-08T23:01:16.573Z,2.20
2022-08-08T23:03:56.233Z,2.10
2022-08-08T23:06:25.154Z,2.30
2022-08-08T23:08:55.128Z,2.33
2022-08-08T23:12:17.445Z,1.98
2022-08-08T23:14:18.619Z,2.08
2022-08-08T23:16:57.474Z,1.77
2022-08-08T23:19:27.864Z,1.90
2022-08-08T23:22:04.206Z,2.05
2022-08-08T23:24:41.731Z,2.38
2022-08-08T23:27:11.078Z,2.35
2022-08-08T23:29:54.991Z,2.47
2022-08-08T23:32:23.528Z,1.92
2022-08-08T23:34:58.747Z,2.50
2022-08-08T23:37:54.243Z,2.00
2022-08-08T23:40:15.760Z,2.50
2022-08-08T23:42:45.141Z,2.20
2022-08-08T23:45:12.811Z,2.40
2022-08-08T23:49:04.617Z,2.40
2022-08-08T23:50:30.200Z,2.50
2022-08-08T23:53:03.513Z,2.50
2022-08-08T23:55:33.674Z,2.70
2022-08-08T23:58:09.846Z,2.80
